Terminal Aerodrome Forecast
Issued by NWS

Home | Current Version | Previous Version | Text Only | Print | Product List | Glossary On
Versions: 1 2 3 4 5 6 7 8 9 10 11 12 13 14 15 16 17 18 19 20 21 22 23 24 25
000
FTUS43 KJKL 282339
TAFSME
TAF
KSME 282339Z 2900/2924 VRB04KT P6SM VCTS BKN040CB OVC120
     FM290200 VRB03KT P6SM SCT060 BKN100
      TEMPO 2909/2913 4SM BR
     FM291600 VRB05KT P6SM VCTS BKN050CB=

USA.gov is the U.S. government's official web portal to all federal, state and local government web resources and services.